createdAt,value
2022-08-02T00:00:14.918Z,4.30
2022-08-02T00:02:44.877Z,4.40
2022-08-02T00:05:14.047Z,4.40
2022-08-02T00:07:42.616Z,4.00
2022-08-02T00:10:11.772Z,4.23
2022-08-02T00:12:39.784Z,4.53
2022-08-02T00:15:10.598Z,4.00
2022-08-02T00:17:45.547Z,4.10
2022-08-02T00:20:15.556Z,3.87
2022-08-02T00:22:43.441Z,4.00
2022-08-02T00:25:11.623Z,4.20
2022-08-02T00:27:39.543Z,4.20
2022-08-02T00:30:08.373Z,3.90
2022-08-02T00:32:36.290Z,3.50
2022-08-02T00:35:06.304Z,3.73
2022-08-02T00:37:34.205Z,3.60
2022-08-02T00:40:03.260Z,3.80
2022-08-02T00:42:31.311Z,3.80
2022-08-02T00:44:59.316Z,4.07
2022-08-02T00:47:27.275Z,3.80
2022-08-02T00:49:55.146Z,3.90
2022-08-02T00:52:25.276Z,3.93
2022-08-02T00:54:53.153Z,3.90
2022-08-02T00:57:21.063Z,3.57
2022-08-02T00:59:49.086Z,3.90
2022-08-02T01:02:17.363Z,3.90
2022-08-02T01:04:45.560Z,4.07
2022-08-02T01:07:14.520Z,4.03
2022-08-02T01:09:44.902Z,3.90
2022-08-02T01:12:14.263Z,3.83
2022-08-02T01:14:44.540Z,3.93
2022-08-02T01:17:19.739Z,4.10
2022-08-02T01:19:56.660Z,3.80
2022-08-02T01:23:03.605Z,4.13
2022-08-02T01:26:00.492Z,4.00
2022-08-02T01:28:38.956Z,4.10
2022-08-02T01:31:16.407Z,3.97
2022-08-02T01:33:48.843Z,4.00
2022-08-02T01:36:19.926Z,3.90
2022-08-02T01:38:50.603Z,3.97
2022-08-02T01:41:21.385Z,3.73
2022-08-02T01:43:54.884Z,3.70
2022-08-02T01:46:24.227Z,3.90
2022-08-02T01:48:55.647Z,3.63
2022-08-02T01:51:46.060Z,3.80
2022-08-02T01:54:16.658Z,3.90
2022-08-02T01:56:46.053Z,3.90
2022-08-02T01:59:20.027Z,4.00
2022-08-02T02:01:50.789Z,4.47
2022-08-02T02:04:20.624Z,3.97
2022-08-02T02:06:50.325Z,4.13
2022-08-02T02:09:19.160Z,4.07
2022-08-02T02:12:09.653Z,3.80
2022-08-02T02:14:40.678Z,3.93
2022-08-02T02:18:11.498Z,3.53
2022-08-02T02:20:01.400Z,4.03
2022-08-02T02:22:29.321Z,4.10
2022-08-02T02:24:57.233Z,4.77
2022-08-02T02:27:26.575Z,4.77
2022-08-02T02:29:57.562Z,3.90
2022-08-02T02:32:28.502Z,4.33
2022-08-02T02:34:57.254Z,4.00
2022-08-02T02:37:27.697Z,4.13
2022-08-02T02:39:58.110Z,4.87
2022-08-02T02:42:31.862Z,4.27
2022-08-02T02:45:03.415Z,4.27
2022-08-02T02:47:41.157Z,4.20
2022-08-02T02:50:11.903Z,4.10
2022-08-02T02:52:41.350Z,3.93
2022-08-02T02:55:10.709Z,4.67
2022-08-02T02:57:40.132Z,4.10
2022-08-02T03:00:13.355Z,4.50
2022-08-02T03:02:42.789Z,4.43
2022-08-02T03:05:13.046Z,4.10
2022-08-02T03:07:41.012Z,4.40
2022-08-02T03:10:10.312Z,4.30
2022-08-02T03:12:38.700Z,4.97
2022-08-02T03:15:09.471Z,4.33
2022-08-02T03:17:42.509Z,4.10
2022-08-02T03:20:13.340Z,4.30
2022-08-02T03:22:41.548Z,4.40
2022-08-02T03:25:10.948Z,5.47
2022-08-02T03:27:39.137Z,4.43
2022-08-02T03:30:10.896Z,4.57
2022-08-02T03:32:41.036Z,4.63
2022-08-02T03:35:12.248Z,4.67
2022-08-02T03:37:41.421Z,4.60
2022-08-02T03:40:12.062Z,4.60
2022-08-02T03:42:41.491Z,4.50
2022-08-02T03:45:13.637Z,4.13
2022-08-02T03:47:42.912Z,4.40
2022-08-02T03:50:13.370Z,4.80
2022-08-02T03:52:43.496Z,3.90
2022-08-02T03:55:12.882Z,4.30
2022-08-02T03:57:41.005Z,3.60
2022-08-02T04:00:13.024Z,3.90
2022-08-02T04:02:41.072Z,3.50
2022-08-02T04:05:10.927Z,3.87
2022-08-02T04:08:03.552Z,3.40
2022-08-02T04:10:27.304Z,4.10
2022-08-02T04:12:56.313Z,3.80
2022-08-02T04:15:26.003Z,4.10
2022-08-02T04:17:57.816Z,3.53
2022-08-02T04:20:29.621Z,3.30
2022-08-02T04:23:02.837Z,3.47
2022-08-02T04:25:38.215Z,3.90
2022-08-02T04:28:17.407Z,4.40
2022-08-02T04:30:48.345Z,4.00
2022-08-02T04:33:16.804Z,3.73
2022-08-02T04:35:45.339Z,4.77
2022-08-02T04:38:14.700Z,4.90
2022-08-02T04:40:50.864Z,4.13
2022-08-02T04:43:18.891Z,4.27
2022-08-02T04:45:49.458Z,5.13
2022-08-02T04:48:17.363Z,4.87
2022-08-02T04:50:45.234Z,4.80
2022-08-02T04:53:13.136Z,4.67
2022-08-02T04:55:41.057Z,4.43
2022-08-02T04:58:24.106Z,4.40
2022-08-02T05:00:58.458Z,6.43
2022-08-02T05:03:26.349Z,4.70
2022-08-02T05:05:55.357Z,4.37
2022-08-02T05:08:23.237Z,4.78
2022-08-02T05:10:51.096Z,5.40
2022-08-02T05:13:19.004Z,6.18
2022-08-02T05:15:49.464Z,6.43
2022-08-02T05:18:19.028Z,6.45
2022-08-02T05:20:46.907Z,7.35
2022-08-02T05:23:14.813Z,6.72
2022-08-02T05:25:42.759Z,7.07
2022-08-02T05:28:11.712Z,5.97
2022-08-02T05:30:39.939Z,6.63
2022-08-02T05:33:08.493Z,5.78
2022-08-02T05:35:37.804Z,5.50
2022-08-02T05:38:05.729Z,5.95
2022-08-02T05:40:38.183Z,6.55
2022-08-02T05:43:23.358Z,5.70
2022-08-02T05:45:53.531Z,6.43
2022-08-02T05:48:21.937Z,4.80
2022-08-02T05:51:04.813Z,5.20
2022-08-02T05:53:39.949Z,5.68
2022-08-02T05:56:19.297Z,4.88
2022-08-02T05:58:53.227Z,5.45
2022-08-02T06:01:29.645Z,5.90
2022-08-02T06:04:00.631Z,6.60
2022-08-02T06:06:33.412Z,6.63
2022-08-02T06:09:04.013Z,6.03
2022-08-02T06:11:36.925Z,5.70
2022-08-02T06:14:05.957Z,6.78
2022-08-02T06:16:42.202Z,6.80
2022-08-02T06:19:12.709Z,6.63
2022-08-02T06:22:32.906Z,6.20
2022-08-02T06:24:33.741Z,6.40
2022-08-02T06:27:02.307Z,6.88
2022-08-02T06:29:36.988Z,6.63
2022-08-02T06:32:09.025Z,7.53
2022-08-02T06:34:40.890Z,6.95
2022-08-02T06:37:28.332Z,9.63
2022-08-02T06:40:02.779Z,9.32
2022-08-02T06:42:42.845Z,8.85
2022-08-02T06:45:11.128Z,6.82
2022-08-02T06:47:39.041Z,6.18
2022-08-02T06:50:07.751Z,6.50
2022-08-02T06:52:37.093Z,6.13
2022-08-02T06:55:07.056Z,6.13
2022-08-02T06:57:35.201Z,5.80
2022-08-02T07:00:07.232Z,5.57
2022-08-02T07:02:36.169Z,5.85
2022-08-02T07:05:04.448Z,4.63
2022-08-02T07:07:32.662Z,4.28
2022-08-02T07:10:02.264Z,4.40
2022-08-02T07:12:31.964Z,5.20
2022-08-02T07:15:00.179Z,4.97
2022-08-02T07:17:28.462Z,5.75
2022-08-02T07:19:56.432Z,4.80
2022-08-02T07:22:24.541Z,4.82
2022-08-02T07:24:52.941Z,4.50
2022-08-02T07:27:23.094Z,3.88
2022-08-02T07:29:51.053Z,4.20
2022-08-02T07:32:21.069Z,3.85
2022-08-02T07:34:51.346Z,3.25
2022-08-02T07:37:35.427Z,2.83
2022-08-02T07:40:13.899Z,3.35
2022-08-02T07:42:44.714Z,3.10
2022-08-02T07:45:13.547Z,2.80
2022-08-02T07:47:43.155Z,3.08
2022-08-02T07:50:12.368Z,15.73
2022-08-02T07:52:41.037Z,3.63
2022-08-02T07:55:10.093Z,3.90
2022-08-02T07:57:42.494Z,5.18
2022-08-02T08:00:16.024Z,3.40
2022-08-02T08:02:44.904Z,7.72
2022-08-02T08:05:13.508Z,2.90
2022-08-02T08:07:42.840Z,2.85
2022-08-02T08:10:11.569Z,2.80
2022-08-02T08:12:40.043Z,3.00
2022-08-02T08:15:08.721Z,3.85
2022-08-02T08:17:38.212Z,6.95
2022-08-02T08:20:07.376Z,3.60
2022-08-02T08:22:35.329Z,3.03
2022-08-02T08:25:04.115Z,2.95
2022-08-02T08:27:32.904Z,4.25
2022-08-02T08:30:02.362Z,3.60
2022-08-02T08:32:30.230Z,3.00
2022-08-02T08:35:03.623Z,3.60
2022-08-02T08:37:35.354Z,4.00
2022-08-02T08:40:05.065Z,2.72
2022-08-02T08:42:33.460Z,3.20
2022-08-02T08:45:01.796Z,2.90
2022-08-02T08:47:35.386Z,2.70
2022-08-02T08:50:06.885Z,2.70
2022-08-02T08:52:41.152Z,2.72
2022-08-02T08:55:11.773Z,2.50
2022-08-02T08:57:43.141Z,2.20
2022-08-02T09:00:14.134Z,2.80
2022-08-02T09:02:43.288Z,2.65
2022-08-02T09:05:15.038Z,2.80
2022-08-02T09:07:45.056Z,3.20
2022-08-02T09:10:34.585Z,2.92
2022-08-02T09:13:37.680Z,3.45
2022-08-02T09:16:13.071Z,2.60
2022-08-02T09:18:45.166Z,2.05
2022-08-02T09:21:16.353Z,2.28
2022-08-02T09:23:46.654Z,2.30
2022-08-02T09:26:16.148Z,2.30
2022-08-02T09:28:46.502Z,2.10
2022-08-02T09:31:16.040Z,2.28
2022-08-02T09:33:45.900Z,3.67
2022-08-02T09:36:16.290Z,2.60
2022-08-02T09:38:55.133Z,3.13
2022-08-02T09:41:24.259Z,3.03
2022-08-02T09:44:05.451Z,2.30
2022-08-02T09:46:37.833Z,2.45
2022-08-02T09:49:09.637Z,3.08
2022-08-02T09:51:40.719Z,3.00
2022-08-02T09:54:12.013Z,4.15
2022-08-02T09:56:49.683Z,2.78
2022-08-02T09:59:19.484Z,2.78
2022-08-02T10:01:51.723Z,2.20
2022-08-02T10:04:34.479Z,2.50
2022-08-02T10:07:23.036Z,2.60
2022-08-02T10:09:51.845Z,2.95
2022-08-02T10:12:20.871Z,2.35
2022-08-02T10:14:51.394Z,2.30
2022-08-02T10:17:22.115Z,2.67
2022-08-02T10:20:00.318Z,2.20
2022-08-02T10:22:35.056Z,2.40
2022-08-02T10:25:05.601Z,2.53
2022-08-02T10:28:02.602Z,3.00
2022-08-02T10:30:25.535Z,3.72
2022-08-02T10:32:56.154Z,2.92
2022-08-02T10:35:26.965Z,1.98
2022-08-02T10:38:01.286Z,2.00
2022-08-02T10:40:44.877Z,2.10
2022-08-02T10:43:13.519Z,2.13
2022-08-02T10:45:41.634Z,2.10
2022-08-02T10:48:11.731Z,2.55
2022-08-02T10:50:56.127Z,2.15
2022-08-02T10:53:28.387Z,2.45
2022-08-02T10:55:57.967Z,3.35
2022-08-02T10:58:29.304Z,2.90
2022-08-02T11:00:59.053Z,2.22
2022-08-02T11:03:40.080Z,1.95
2022-08-02T11:06:25.389Z,2.25
2022-08-02T11:09:32.280Z,2.00
2022-08-02T11:12:03.279Z,1.80
2022-08-02T11:14:31.726Z,2.00
2022-08-02T11:17:14.458Z,2.00
2022-08-02T11:20:17.603Z,2.08
2022-08-02T11:22:48.016Z,2.38
2022-08-02T11:26:03.147Z,2.10
2022-08-02T11:28:30.073Z,2.55
2022-08-02T11:30:59.846Z,2.75
2022-08-02T11:33:34.713Z,1.92
2022-08-02T11:36:04.589Z,2.00
2022-08-02T11:38:32.568Z,2.60
2022-08-02T11:41:06.217Z,2.00
2022-08-02T11:43:38.262Z,2.17
2022-08-02T11:46:14.042Z,2.10
2022-08-02T11:48:43.003Z,1.90
2022-08-02T11:51:14.758Z,2.17
2022-08-02T11:53:44.525Z,2.30
2022-08-02T11:56:21.785Z,2.10
2022-08-02T11:59:05.184Z,2.60
2022-08-02T12:01:38.206Z,2.80
2022-08-02T12:04:17.940Z,2.10
2022-08-02T12:06:54.342Z,2.20
2022-08-02T12:09:24.033Z,2.05
2022-08-02T12:11:53.307Z,3.83
2022-08-02T12:14:21.237Z,2.72
2022-08-02T12:17:07.604Z,2.30
2022-08-02T12:19:36.201Z,2.60
2022-08-02T12:22:19.152Z,2.22
2022-08-02T12:24:49.416Z,2.15
2022-08-02T12:27:36.679Z,2.47
2022-08-02T12:30:09.067Z,1.90
2022-08-02T12:32:37.550Z,2.00
2022-08-02T12:35:11.374Z,2.63
2022-08-02T12:37:41.433Z,2.45
2022-08-02T12:40:25.787Z,2.28
2022-08-02T12:42:58.497Z,2.35
2022-08-02T12:45:38.330Z,2.55
2022-08-02T12:48:09.434Z,1.90
2022-08-02T12:50:38.511Z,2.05
2022-08-02T12:53:09.243Z,2.13
2022-08-02T12:56:02.085Z,2.10
2022-08-02T12:58:31.561Z,2.63
2022-08-02T13:01:01.652Z,2.25
2022-08-02T13:04:09.755Z,2.97
2022-08-02T13:06:45.879Z,2.60
2022-08-02T13:09:17.662Z,2.80
2022-08-02T13:11:46.321Z,2.80
2022-08-02T13:14:16.234Z,2.50
2022-08-02T13:16:45.581Z,2.33
2022-08-02T13:19:15.491Z,2.40
2022-08-02T13:22:01.474Z,2.00
2022-08-02T13:24:40.759Z,2.13
2022-08-02T13:27:20.947Z,2.33
2022-08-02T13:29:51.510Z,2.30
2022-08-02T13:32:19.479Z,2.20
2022-08-02T13:34:47.674Z,2.30
2022-08-02T13:37:16.107Z,2.65
2022-08-02T13:40:00.080Z,4.97
2022-08-02T13:42:32.216Z,2.40
2022-08-02T13:45:11.781Z,2.25
2022-08-02T13:48:04.750Z,2.10
2022-08-02T13:50:31.280Z,2.00
2022-08-02T13:52:59.170Z,1.92
2022-08-02T13:55:28.051Z,2.20
2022-08-02T13:57:56.152Z,1.70
2022-08-02T14:00:34.753Z,2.28
2022-08-02T14:03:05.287Z,2.00
2022-08-02T14:05:46.965Z,2.33
2022-08-02T14:08:17.910Z,3.53
2022-08-02T14:10:47.076Z,2.53
2022-08-02T14:13:15.107Z,2.10
2022-08-02T14:15:44.838Z,2.40
2022-08-02T14:18:14.942Z,2.55
2022-08-02T14:20:43.284Z,2.13
2022-08-02T14:23:11.200Z,1.90
2022-08-02T14:25:39.181Z,1.95
2022-08-02T14:28:07.338Z,1.73
2022-08-02T14:30:35.455Z,3.20
2022-08-02T14:33:05.083Z,2.30
2022-08-02T14:35:33.001Z,2.60
2022-08-02T14:38:01.142Z,2.80
2022-08-02T14:40:30.991Z,2.47
2022-08-02T14:43:00.247Z,2.22
2022-08-02T14:45:39.764Z,2.90
2022-08-02T14:48:12.012Z,2.10
2022-08-02T14:50:40.078Z,3.45
2022-08-02T14:53:12.536Z,1.60
2022-08-02T14:55:41.727Z,1.88
2022-08-02T14:58:09.625Z,1.88
2022-08-02T15:00:40.948Z,1.98
2022-08-02T15:03:10.826Z,2.83
2022-08-02T15:05:39.003Z,2.50
2022-08-02T15:08:07.629Z,3.50
2022-08-02T15:10:35.513Z,3.28
2022-08-02T15:13:03.417Z,3.58
2022-08-02T15:15:31.337Z,2.78
2022-08-02T15:18:00.372Z,1.60
2022-08-02T15:20:29.967Z,3.63
2022-08-02T15:23:03.427Z,3.22
2022-08-02T15:25:31.378Z,3.30
2022-08-02T15:27:59.585Z,1.95
2022-08-02T15:30:27.615Z,5.25
2022-08-02T15:32:55.530Z,2.42
2022-08-02T15:35:23.388Z,3.80
2022-08-02T15:37:52.982Z,4.57
2022-08-02T15:40:21.198Z,2.15
2022-08-02T15:42:49.136Z,2.50
2022-08-02T15:45:17.393Z,2.40
2022-08-02T15:47:50.537Z,2.22
2022-08-02T15:50:19.464Z,2.75
2022-08-02T15:52:47.397Z,2.95
2022-08-02T15:55:16.865Z,2.13
2022-08-02T15:57:45.216Z,4.80
2022-08-02T16:00:18.493Z,3.08
2022-08-02T16:02:47.742Z,2.40
2022-08-02T16:05:17.960Z,2.83
2022-08-02T16:07:46.658Z,2.78
2022-08-02T16:10:16.675Z,3.60
2022-08-02T16:12:44.765Z,2.45
2022-08-02T16:15:13.553Z,2.40
2022-08-02T16:17:48.812Z,2.40
2022-08-02T16:20:22.241Z,2.20
2022-08-02T16:22:50.139Z,3.00
2022-08-02T16:25:19.439Z,3.30
2022-08-02T16:28:06.794Z,2.72
2022-08-02T16:30:36.005Z,2.70
2022-08-02T16:33:04.328Z,2.75
2022-08-02T16:35:32.586Z,2.85
2022-08-02T16:38:00.495Z,2.50
2022-08-02T16:40:30.715Z,4.15
2022-08-02T16:42:58.679Z,3.10
2022-08-02T16:45:28.490Z,2.95
2022-08-02T16:48:03.598Z,3.00
2022-08-02T16:50:33.819Z,3.38
2022-08-02T16:55:51.507Z,2.65
2022-08-02T16:58:19.866Z,2.78
2022-08-02T17:00:48.002Z,2.38
2022-08-02T17:03:15.985Z,2.05
2022-08-02T17:05:56.431Z,1.90
2022-08-02T17:11:14.505Z,2.50
2022-08-02T17:13:45.517Z,2.80
2022-08-02T17:16:20.722Z,2.78
2022-08-02T17:18:54.041Z,2.20
2022-08-02T17:21:22.583Z,1.90
2022-08-02T17:24:07.653Z,1.95
2022-08-02T17:26:38.607Z,2.38
2022-08-02T17:29:15.321Z,2.30
2022-08-02T17:32:06.233Z,2.60
2022-08-02T17:34:34.042Z,2.50
2022-08-02T17:37:02.024Z,2.95
2022-08-02T17:39:34.570Z,3.90
2022-08-02T17:42:15.473Z,2.60
2022-08-02T17:44:50.113Z,2.40
2022-08-02T17:47:19.497Z,1.90
2022-08-02T17:49:48.556Z,2.15
2022-08-02T17:52:50.634Z,2.20
2022-08-02T17:55:05.749Z,2.20
2022-08-02T17:57:56.266Z,3.72
2022-08-02T18:00:24.588Z,3.53
2022-08-02T18:02:55.623Z,2.70
2022-08-02T18:05:39.397Z,5.50
2022-08-02T18:08:10.071Z,3.22
2022-08-02T18:10:39.359Z,3.33
2022-08-02T18:13:08.664Z,3.35
2022-08-02T18:15:37.102Z,4.13
2022-08-02T18:18:05.353Z,5.78
2022-08-02T18:20:34.240Z,3.25
2022-08-02T18:23:02.135Z,3.33
2022-08-02T18:25:37.508Z,3.83
2022-08-02T18:28:16.508Z,3.83
2022-08-02T18:30:44.533Z,4.93
2022-08-02T18:33:55.388Z,5.03
2022-08-02T18:36:00.945Z,4.28
2022-08-02T18:38:31.269Z,4.72
2022-08-02T18:41:02.892Z,4.97
2022-08-02T18:43:35.397Z,4.25
2022-08-02T18:46:15.430Z,3.47
2022-08-02T18:48:47.039Z,5.05
2022-08-02T18:51:18.740Z,4.82
2022-08-02T18:53:48.954Z,4.38
2022-08-02T18:56:20.446Z,5.50
2022-08-02T18:58:55.196Z,5.25
2022-08-02T19:01:32.219Z,4.95
2022-08-02T19:04:04.226Z,4.95
2022-08-02T19:06:32.523Z,4.63
2022-08-02T19:09:11.277Z,4.90
2022-08-02T19:11:41.305Z,4.65
2022-08-02T19:14:19.397Z,4.47
2022-08-02T19:16:55.608Z,4.43
2022-08-02T19:19:28.938Z,4.20
2022-08-02T19:22:18.598Z,4.35
2022-08-02T19:24:47.157Z,5.60
2022-08-02T19:27:20.721Z,4.93
2022-08-02T19:30:02.298Z,5.20
2022-08-02T19:32:41.708Z,5.43
2022-08-02T19:35:30.530Z,5.40
2022-08-02T19:38:08.870Z,5.38
2022-08-02T19:40:37.284Z,4.38
2022-08-02T19:44:27.475Z,4.78
2022-08-02T19:45:57.171Z,5.30
2022-08-02T19:48:27.146Z,5.78
2022-08-02T19:51:00.590Z,5.05
2022-08-02T19:53:46.749Z,5.45
2022-08-02T19:56:20.951Z,6.03
2022-08-02T19:58:53.952Z,6.13
2022-08-02T20:01:36.774Z,6.25
2022-08-02T20:04:13.135Z,5.93
2022-08-02T20:06:45.491Z,6.53
2022-08-02T20:09:16.662Z,5.72
2022-08-02T20:11:45.241Z,8.85
2022-08-02T20:14:13.884Z,6.13
2022-08-02T20:16:43.163Z,5.80
2022-08-02T20:19:14.103Z,5.30
2022-08-02T20:21:48.326Z,5.60
2022-08-02T20:24:21.001Z,5.25
2022-08-02T20:26:54.676Z,5.70
2022-08-02T20:29:43.304Z,6.43
2022-08-02T20:32:11.840Z,6.65
2022-08-02T20:34:39.838Z,6.50
2022-08-02T20:37:56.298Z,6.95
2022-08-02T20:39:55.672Z,5.88
2022-08-02T20:42:24.731Z,5.55
2022-08-02T20:44:54.237Z,5.85
2022-08-02T20:47:38.962Z,6.28
2022-08-02T20:50:30.423Z,6.55
2022-08-02T20:53:00.006Z,7.30
2022-08-02T20:55:31.301Z,6.75
2022-08-02T20:58:01.440Z,6.90
2022-08-02T21:00:31.661Z,7.03
2022-08-02T21:03:02.688Z,9.52
2022-08-02T21:05:43.907Z,9.40
2022-08-02T21:08:21.253Z,9.52
2022-08-02T21:10:52.096Z,6.70
2022-08-02T21:13:23.995Z,8.85
2022-08-02T21:15:55.312Z,8.18
2022-08-02T21:18:40.297Z,5.88
2022-08-02T21:21:10.095Z,5.72
2022-08-02T21:23:45.006Z,5.82
2022-08-02T21:26:25.771Z,5.78
2022-08-02T21:28:56.793Z,6.13
2022-08-02T21:31:29.727Z,6.45
2022-08-02T21:34:01.158Z,6.07
2022-08-02T21:36:31.768Z,5.85
2022-08-02T21:39:04.752Z,5.75
2022-08-02T21:41:38.995Z,5.85
2022-08-02T21:44:13.480Z,6.03
2022-08-02T21:46:44.581Z,5.82
2022-08-02T21:49:14.912Z,5.70
2022-08-02T21:51:49.234Z,5.70
2022-08-02T21:54:20.341Z,6.03
2022-08-02T21:56:50.100Z,6.25
2022-08-02T21:59:26.344Z,5.38
2022-08-02T22:01:56.740Z,5.32
2022-08-02T22:04:26.794Z,5.80
2022-08-02T22:06:55.423Z,5.38
2022-08-02T22:09:44.014Z,5.63
2022-08-02T22:12:12.785Z,5.10
2022-08-02T22:14:49.525Z,5.35
2022-08-02T22:17:52.006Z,5.00
2022-08-02T22:20:13.682Z,5.00
2022-08-02T22:22:42.025Z,4.30
2022-08-02T22:25:26.982Z,4.35
2022-08-02T22:28:36.139Z,4.30
2022-08-02T22:30:52.450Z,4.22
2022-08-02T22:33:42.203Z,4.10
2022-08-02T22:36:16.553Z,4.07
2022-08-02T22:38:44.901Z,4.30
2022-08-02T22:41:13.409Z,3.30
2022-08-02T22:43:41.483Z,5.05
2022-08-02T22:46:09.996Z,3.60
2022-08-02T22:48:43.911Z,3.20
2022-08-02T22:51:12.652Z,3.90
2022-08-02T22:53:42.909Z,3.20
2022-08-02T22:56:11.479Z,3.10
2022-08-02T22:58:35.329Z,2.28
2022-08-02T22:58:36.989Z,2.17
2022-08-02T22:59:12.384Z,3.23
2022-08-02T23:01:27.648Z,3.27
2022-08-02T23:03:55.652Z,3.80
2022-08-02T23:06:23.527Z,5.73
2022-08-02T23:08:52.823Z,3.63
2022-08-02T23:11:20.776Z,3.20
2022-08-02T23:13:48.641Z,3.33
2022-08-02T23:16:37.386Z,3.33
2022-08-02T23:19:23.080Z,3.00
2022-08-02T23:22:01.877Z,3.20
2022-08-02T23:24:33.915Z,3.40
2022-08-02T23:27:02.079Z,3.40
2022-08-02T23:29:30.027Z,3.57
2022-08-02T23:31:59.083Z,3.70
2022-08-02T23:34:27.239Z,3.77
2022-08-02T23:36:55.267Z,4.67
2022-08-02T23:39:23.320Z,5.13
2022-08-02T23:41:55.053Z,4.97
2022-08-02T23:44:23.827Z,4.70
2022-08-02T23:46:52.100Z,4.50
2022-08-02T23:49:20.381Z,4.00
2022-08-02T23:51:49.281Z,4.17
2022-08-02T23:54:17.327Z,3.23
2022-08-02T23:56:45.656Z,2.97
2022-08-02T23:59:15.541Z,2.90
